Time;durP1;ratioP1;P1;durP2;ratioP2;P2;SDS_P1;SDS_P2;PMS_P1;PMS_P2;Temp;Humidity;BMP_temperature;BMP_pressure;BME280_temperature;BME280_humidity;BME280_pressure;Samples;Min_cycle;Max_cycle;Signal;HPM_P1;HPM_P2
2023/08/22 00:01:59;;;;;;;1.60;1.50;;;;;;;22.85;61.34;97053.94;10486205;28;20301;-30
2023/08/22 00:07:00;;;;;;;1.73;1.63;;;;;;;22.85;61.30;97053.94;10495370;28;20040;-29
2023/08/22 00:12:00;;;;;;;1.90;1.80;;;;;;;22.88;61.45;97063.22;10491923;28;20036;-30
2023/08/22 00:17:00;;;;;;;1.70;1.60;;;;;;;22.83;61.28;97049.69;10494963;28;20055;-29
2023/08/22 00:22:01;;;;;;;1.40;1.30;;;;;;;22.84;61.41;97057.34;10488844;28;20525;-29
2023/08/22 00:27:02;;;;;;;1.75;1.65;;;;;;;22.81;61.47;97052.25;10487005;28;20608;-29
2023/08/22 00:32:03;;;;;;;1.67;1.58;;;;;;;22.84;61.26;97039.47;10492744;28;20025;-30
2023/08/22 00:37:03;;;;;;;1.80;1.70;;;;;;;22.87;61.45;97047.09;10483603;28;20491;-29
2023/08/22 00:42:04;;;;;;;1.70;1.60;;;;;;;22.87;61.37;97053.88;10493651;28;20085;-30
2023/08/22 00:47:04;;;;;;;1.38;1.27;;;;;;;22.85;61.41;97038.59;10483879;28;20875;-30
2023/08/22 00:52:07;;;;;;;1.70;1.58;;;;;;;22.86;61.31;97045.41;10492170;28;20115;-29
2023/08/22 00:57:08;;;;;;;1.52;1.42;;;;;;;22.83;61.62;97029.28;10490786;28;20032;-30
2023/08/22 01:02:08;;;;;;;1.50;1.40;;;;;;;22.85;61.29;97036.06;10486775;28;20039;-30
2023/08/22 01:07:23;;;;;;;1.70;1.60;;;;;;;22.86;61.25;97029.22;10491582;28;20032;-29
2023/08/22 01:12:39;;;;;;;1.38;1.27;;;;;;;22.85;61.18;97023.28;10486794;28;20033;-30
2023/08/22 01:17:42;;;;;;;1.58;1.48;;;;;;;22.86;61.26;97024.13;10492542;28;20425;-30
2023/08/22 01:22:42;;;;;;;1.30;1.20;;;;;;;22.86;61.31;97019.88;10483691;28;20033;-30
2023/08/22 01:28:11;;;;;;;1.55;1.30;;;;;;;22.86;61.31;97024.97;10491089;28;20589;-30
2023/08/22 01:33:24;;;;;;;1.35;1.25;;;;;;;22.87;61.24;97030.91;10488817;28;20028;-29
2023/08/22 01:38:27;;;;;;;1.52;1.42;;;;;;;22.84;61.16;97028.41;10491928;28;20031;-30
2023/08/22 01:43:28;;;;;;;1.30;1.20;;;;;;;22.86;61.20;97030.06;10487089;28;20033;-29
2023/08/22 01:48:28;;;;;;;1.10;1.10;;;;;;;22.86;61.24;97019.88;10486153;28;20450;-29
2023/08/22 01:53:29;;;;;;;1.70;1.60;;;;;;;22.84;61.20;97015.63;10490179;28;20078;-30
2023/08/22 01:58:29;;;;;;;1.27;1.17;;;;;;;22.86;61.20;97019.88;10487210;28;20043;-30
2023/08/22 02:03:29;;;;;;;1.58;1.48;;;;;;;22.86;61.33;97012.19;10489715;28;20031;-29
2023/08/22 02:08:30;;;;;;;1.60;1.50;;;;;;;22.87;61.18;97016.44;10488151;28;20040;-29
2023/08/22 02:13:31;;;;;;;1.30;1.20;;;;;;;22.88;61.41;97017.28;10489812;28;20036;-30
2023/08/22 02:18:32;;;;;;;1.52;1.42;;;;;;;22.86;60.59;97009.66;10484916;28;20036;-29
2023/08/22 02:23:32;;;;;;;1.30;1.20;;;;;;;22.81;61.30;97001.19;10488825;28;20498;-30
2023/08/22 02:28:33;;;;;;;1.30;1.20;;;;;;;22.87;61.28;97011.34;10484598;28;20406;-30
2023/08/22 02:33:33;;;;;;;1.48;1.38;;;;;;;22.87;61.22;97016.44;10483423;28;20031;-29
2023/08/22 02:38:34;;;;;;;1.50;1.40;;;;;;;22.87;61.33;97003.69;10491064;28;20024;-29
2023/08/22 02:43:34;;;;;;;1.03;1.00;;;;;;;22.86;61.24;97012.19;10481088;28;20059;-30
2023/08/22 02:48:35;;;;;;;1.50;1.40;;;;;;;22.86;61.46;97009.66;10489468;28;20025;-29
2023/08/22 02:53:35;;;;;;;1.35;1.25;;;;;;;22.86;61.29;97009.66;10485049;28;20283;-29
2023/08/22 02:58:36;;;;;;;1.70;1.60;;;;;;;22.87;61.21;97010.47;10490163;28;20028;-29
2023/08/22 03:03:36;;;;;;;1.50;1.40;;;;;;;22.87;61.20;97002.81;10488642;28;20029;-30
2023/08/22 03:08:37;;;;;;;2.13;1.50;;;;;;;22.88;61.24;97007.06;10490135;28;20035;-30
2023/08/22 03:13:38;;;;;;;1.60;1.50;;;;;;;22.88;61.27;97015.56;10495608;28;20029;-30
2023/08/22 03:18:38;;;;;;;1.98;1.23;;;;;;;22.83;61.13;97004.56;10494425;28;20028;-29
2023/08/22 03:23:39;;;;;;;1.30;1.20;;;;;;;22.85;61.07;97007.97;10490449;28;20029;-30
2023/08/22 03:28:40;;;;;;;1.42;1.33;;;;;;;22.86;61.31;97006.25;10492123;28;20585;-30
2023/08/22 03:33:43;;;;;;;1.30;1.20;;;;;;;22.88;61.33;97014.72;10493060;28;20406;-29
2023/08/22 03:38:46;;;;;;;1.20;1.10;;;;;;;22.86;61.13;97009.66;10491449;28;20032;-30
2023/08/22 03:43:47;;;;;;;1.50;1.40;;;;;;;22.87;61.09;97016.44;10482012;28;20036;-30
2023/08/22 03:48:47;;;;;;;1.40;1.30;;;;;;;22.88;61.08;97015.56;10496165;28;20028;-30
2023/08/22 03:53:49;;;;;;;1.25;1.15;;;;;;;22.88;61.17;97018.13;10490239;28;20279;-31
2023/08/22 03:58:50;;;;;;;1.40;1.30;;;;;;;22.88;60.92;97012.16;10492868;28;20035;-29
2023/08/22 04:03:51;;;;;;;1.53;1.43;;;;;;;22.87;61.05;97008.78;10491100;28;20051;-29
2023/08/22 04:08:51;;;;;;;1.35;1.25;;;;;;;22.85;61.20;97007.97;10487968;28;20061;-30
2023/08/22 04:13:52;;;;;;;1.17;1.00;;;;;;;22.87;61.15;97021.53;10493350;28;20033;-29
2023/08/22 04:18:52;;;;;;;1.23;1.13;;;;;;;22.89;61.12;97026.66;10492466;28;20040;-30
2023/08/22 04:23:52;;;;;;;1.23;1.13;;;;;;;22.88;61.08;97030.91;10494519;28;20032;-29
2023/08/22 04:28:53;;;;;;;1.20;1.10;;;;;;;22.89;61.19;97029.19;10488869;28;20052;-30
2023/08/22 04:33:53;;;;;;;1.40;1.30;;;;;;;22.89;61.09;97040.25;10487929;28;20455;-31
2023/08/22 04:38:54;;;;;;;0.80;0.80;;;;;;;22.88;61.60;97042.81;10492660;28;20072;-28
2023/08/22 04:43:57;;;;;;;1.40;1.30;;;;;;;22.86;60.95;97040.28;10488421;28;20074;-30
2023/08/22 04:48:57;;;;;;;1.30;1.20;;;;;;;22.87;61.07;97039.44;10492250;28;20371;-30
2023/08/22 04:53:58;;;;;;;1.40;1.30;;;;;;;22.91;61.00;97051.28;10489526;28;20291;-30
2023/08/22 04:58:58;;;;;;;1.30;1.20;;;;;;;22.89;61.06;97050.44;10487349;28;20317;-30
2023/08/22 05:03:59;;;;;;;1.65;1.55;;;;;;;22.88;61.09;97040.25;10491519;28;20040;-29
2023/08/22 05:09:00;;;;;;;1.63;1.52;;;;;;;22.89;61.03;97040.25;10488755;28;20432;-30
2023/08/22 05:14:02;;;;;;;1.30;1.20;;;;;;;22.91;61.29;97041.06;10492377;28;20044;-29
2023/08/22 05:19:03;;;;;;;1.45;1.35;;;;;;;22.90;61.19;97030.88;10483494;28;20056;-30
2023/08/22 05:24:04;;;;;;;1.52;1.42;;;;;;;22.89;61.11;97035.13;10490782;28;20048;-29
2023/08/22 05:29:05;;;;;;;1.38;1.27;;;;;;;22.92;61.24;97037.63;10490059;28;20402;-30
2023/08/22 05:34:07;;;;;;;1.50;1.40;;;;;;;22.91;61.46;97038.50;10488517;28;20121;-30
2023/08/22 05:39:07;;;;;;;1.60;1.50;;;;;;;22.93;61.31;97041.91;10492143;28;20085;-30
2023/08/22 05:44:08;;;;;;;1.73;1.63;;;;;;;22.92;61.28;97047.84;10489006;28;20055;-29
2023/08/22 05:49:08;;;;;;;1.30;1.20;;;;;;;22.92;60.97;97050.41;10490333;28;20029;-29
2023/08/22 05:54:10;;;;;;;1.50;1.40;;;;;;;22.90;60.93;97051.31;10488710;28;20040;-30
2023/08/22 05:59:11;;;;;;;1.45;1.35;;;;;;;22.91;61.14;97053.81;10485976;28;20061;-29
2023/08/22 06:04:11;;;;;;;1.50;1.40;;;;;;;22.90;61.10;97052.13;10491282;28;20074;-29
2023/08/22 06:09:12;;;;;;;1.10;1.10;;;;;;;22.89;61.14;97060.66;10488249;28;20029;-29
2023/08/22 06:14:12;;;;;;;1.25;1.15;;;;;;;22.91;61.13;97056.38;10489564;28;20490;-29
2023/08/22 06:19:15;;;;;;;1.30;1.20;;;;;;;22.89;60.91;97055.56;10487550;28;20068;-30
2023/08/22 06:24:16;;;;;;;0.93;0.93;;;;;;;22.90;61.06;97058.97;10489232;28;20036;-29
2023/08/22 06:29:16;;;;;;;1.30;1.20;;;;;;;22.89;61.14;97055.56;10488470;28;20038;-30
2023/08/22 06:34:17;;;;;;;1.48;1.38;;;;;;;22.90;60.96;97054.69;10489918;28;20024;-30
2023/08/22 06:39:17;;;;;;;1.50;1.40;;;;;;;22.90;61.07;97057.25;10488125;28;20036;-30
2023/08/22 06:44:18;;;;;;;1.23;1.13;;;;;;;22.90;61.10;97061.53;10490782;28;20033;-29
2023/08/22 06:49:18;;;;;;;0.93;0.93;;;;;;;22.88;61.22;97051.31;10497089;28;20783;-29
2023/08/22 06:54:18;;;;;;;1.10;1.00;;;;;;;22.85;61.09;97051.38;10489529;28;20034;-30
2023/08/22 06:59:19;;;;;;;1.10;1.00;;;;;;;22.92;61.06;97054.69;10496612;28;20306;-29
2023/08/22 07:04:19;;;;;;;1.23;1.13;;;;;;;22.92;61.09;97063.19;10495902;28;20059;-30
2023/08/22 07:09:20;;;;;;;1.50;1.30;;;;;;;22.91;61.12;97058.94;10497666;28;20052;-30
2023/08/22 07:14:20;;;;;;;1.23;1.13;;;;;;;22.92;61.12;97055.50;10494240;28;20039;-30
2023/08/22 07:19:21;;;;;;;1.00;1.00;;;;;;;22.92;61.14;97055.50;10497370;28;20044;-30
2023/08/22 07:24:21;;;;;;;1.57;1.47;;;;;;;22.90;61.04;97062.34;10491901;28;20075;-30
2023/08/22 07:29:21;;;;;;;1.42;1.33;;;;;;;22.92;61.06;97065.72;10497695;28;20299;-29
2023/08/22 07:34:22;;;;;;;1.37;1.27;;;;;;;22.93;61.11;97067.44;10490983;28;20040;-29
2023/08/22 07:39:23;;;;;;;1.00;1.00;;;;;;;22.94;61.16;97065.72;10496246;28;20063;-29
2023/08/22 07:44:24;;;;;;;1.50;1.40;;;;;;;22.94;61.30;97074.25;10493663;28;20040;-30
2023/08/22 07:49:24;;;;;;;1.48;1.38;;;;;;;22.93;61.27;97070.00;10491316;28;20021;-30
2023/08/22 07:54:25;;;;;;;1.67;1.58;;;;;;;22.94;61.19;97073.38;10495908;28;20494;-29
2023/08/22 07:59:25;;;;;;;1.52;1.42;;;;;;;22.95;61.19;97075.94;10488800;28;20033;-29
2023/08/22 08:04:26;;;;;;;1.40;1.30;;;;;;;22.95;61.25;97075.94;10495918;28;20071;-29
2023/08/22 08:09:26;;;;;;;1.63;1.52;;;;;;;22.90;61.29;97070.00;10489596;28;20664;-30
2023/08/22 08:14:27;;;;;;;1.30;1.20;;;;;;;22.94;61.25;97071.69;10490796;28;20116;-30
2023/08/22 08:19:27;;;;;;;1.53;1.43;;;;;;;22.96;61.13;97084.41;10494881;28;20407;-30
2023/08/22 08:24:27;;;;;;;1.47;1.37;;;;;;;22.95;61.24;97075.06;10490468;28;20295;-29
2023/08/22 08:29:28;;;;;;;1.10;1.07;;;;;;;22.95;61.11;97077.63;10494891;28;20274;-28
2023/08/22 08:34:29;;;;;;;1.45;1.35;;;;;;;22.97;61.31;97084.41;10485089;28;20305;-30
2023/08/22 08:39:30;;;;;;;1.43;1.33;;;;;;;22.90;61.39;97072.56;10491188;28;20043;-29
2023/08/22 08:44:34;;;;;;;1.67;1.58;;;;;;;22.97;61.25;97081.84;10493818;28;20040;-29
2023/08/22 08:49:35;;;;;;;1.50;1.40;;;;;;;22.98;61.38;97082.72;10488089;28;20454;-30
2023/08/22 08:54:36;;;;;;;1.38;1.27;;;;;;;22.98;61.27;97080.16;10493646;28;20038;-30
2023/08/22 08:59:37;;;;;;;1.52;1.42;;;;;;;22.97;61.28;97078.47;10481015;28;20115;-35
2023/08/22 09:04:37;;;;;;;1.48;1.38;;;;;;;22.97;61.30;97079.31;10484439;28;20043;-30
2023/08/22 09:09:38;;;;;;;1.70;1.60;;;;;;;22.97;61.13;97074.19;10491951;28;20052;-30
2023/08/22 09:14:47;;;;;;;1.40;1.30;;;;;;;22.97;61.37;97079.31;10484577;28;20063;-30
2023/08/22 09:19:48;;;;;;;1.10;1.00;;;;;;;22.99;61.19;97079.28;10491325;28;20111;-30
2023/08/22 09:24:52;;;;;;;1.75;1.65;;;;;;;22.98;61.21;97075.88;10490697;28;20033;-30
2023/08/22 09:30:00;;;;;;;2.25;1.60;;;;;;;22.99;61.42;97071.63;10492024;28;20028;-30
2023/08/22 09:35:02;;;;;;;1.45;1.35;;;;;;;22.98;61.33;97078.44;10487671;28;20067;-30
2023/08/22 09:40:09;;;;;;;1.27;1.17;;;;;;;22.94;61.29;97058.91;10488823;28;20466;-30
2023/08/22 09:45:10;;;;;;;1.48;1.38;;;;;;;22.99;61.19;97056.31;10487510;28;20123;-30
2023/08/22 09:50:16;;;;;;;1.60;1.50;;;;;;;22.99;61.24;97062.25;10487604;28;20037;-29
2023/08/22 09:55:16;;;;;;;1.58;1.48;;;;;;;23.00;61.41;97063.94;10491977;28;20068;-30
2023/08/22 10:00:17;;;;;;;1.40;1.30;;;;;;;23.01;61.47;97063.09;10486329;28;20068;-30
2023/08/22 10:05:18;;;;;;;1.40;1.30;;;;;;;23.00;61.52;97058.81;10485069;28;20058;-29
2023/08/22 10:10:18;;;;;;;2.70;1.63;;;;;;;23.02;61.42;97056.25;10491371;28;20032;-31
2023/08/22 10:15:19;;;;;;;1.45;1.35;;;;;;;23.01;61.42;97042.66;10484322;28;20035;-30
2023/08/22 10:20:20;;;;;;;1.42;1.33;;;;;;;23.02;61.63;97051.16;10496920;28;20037;-29
2023/08/22 10:25:45;;;;;;;1.67;1.58;;;;;;;23.02;61.37;97046.91;10490871;28;20040;-30
2023/08/22 10:31:04;;;;;;;1.52;1.42;;;;;;;23.03;65.61;97035.81;10482629;28;20084;-31
2023/08/22 10:36:16;;;;;;;1.80;1.70;;;;;;;23.03;62.77;97033.25;10498780;28;20036;-30
2023/08/22 10:41:19;;;;;;;1.45;1.35;;;;;;;23.06;62.28;97032.38;10495338;28;20052;-29
2023/08/22 10:46:20;;;;;;;1.70;1.60;;;;;;;23.04;61.95;97027.28;10498739;28;20097;-30
2023/08/22 10:51:20;;;;;;;1.97;1.70;;;;;;;23.04;61.91;97023.88;10491409;28;20028;-30
2023/08/22 10:56:25;;;;;;;1.83;1.73;;;;;;;23.04;61.67;97032.41;10498892;28;20035;-30
2023/08/22 11:01:26;;;;;;;1.52;1.42;;;;;;;23.04;61.96;97027.28;10490107;28;20032;-30
2023/08/22 11:06:26;;;;;;;1.90;1.80;;;;;;;23.05;62.10;97026.41;10497748;28;20414;-30
2023/08/22 11:11:27;;;;;;;2.70;2.33;;;;;;;23.06;62.08;97024.72;10491104;28;20028;-29
2023/08/22 11:16:28;;;;;;;2.75;2.55;;;;;;;23.04;61.93;97023.88;10487943;28;20060;-29
2023/08/22 11:21:28;;;;;;;2.65;2.40;;;;;;;23.00;62.04;97017.97;10494791;28;20486;-29
2023/08/22 11:26:29;;;;;;;2.67;2.47;;;;;;;23.07;62.07;97028.97;10489940;28;20051;-29
2023/08/22 11:31:30;;;;;;;2.90;2.70;;;;;;;23.07;62.27;97026.41;10494172;28;20279;-29
2023/08/22 11:36:31;;;;;;;3.85;2.50;;;;;;;23.05;62.10;97013.66;10486160;28;20043;-30
2023/08/22 11:41:31;;;;;;;3.03;2.72;;;;;;;23.07;62.12;97013.63;10485497;28;20029;-30
2023/08/22 11:46:37;;;;;;;3.87;2.77;;;;;;;23.05;61.83;97011.09;10494088;28;20123;-29
2023/08/22 11:51:56;;;;;;;2.97;2.78;;;;;;;23.06;61.95;97010.22;10490450;28;20322;-30
2023/08/22 11:56:59;;;;;;;3.57;3.27;;;;;;;23.06;61.96;97007.66;10493740;28;20032;-30
2023/08/22 12:02:01;;;;;;;2.65;2.45;;;;;;;23.07;61.77;97003.41;10491605;28;20121;-29
2023/08/22 12:07:01;;;;;;;3.00;2.70;;;;;;;23.06;62.00;96996.63;10490474;28;20036;-30
2023/08/22 12:12:12;;;;;;;3.00;2.80;;;;;;;23.08;62.19;97000.00;10455872;28;1092954;-29
2023/08/22 12:17:12;;;;;;;2.85;2.65;;;;;;;23.06;61.87;96996.63;10489572;28;20040;-30
2023/08/22 12:22:12;;;;;;;2.40;2.20;;;;;;;23.06;61.67;96988.97;10494590;28;20118;-29
2023/08/22 12:27:13;;;;;;;2.50;2.30;;;;;;;23.07;61.84;96993.19;10487561;28;20036;-30
2023/08/22 12:32:13;;;;;;;2.97;2.72;;;;;;;23.07;61.99;96988.91;10494512;28;20040;-30
2023/08/22 12:37:14;;;;;;;3.57;2.80;;;;;;;23.05;62.03;96985.56;10492392;28;20051;-29
2023/08/22 12:42:14;;;;;;;2.80;2.60;;;;;;;23.08;62.08;96970.16;10492407;28;20239;-29
2023/08/22 12:47:14;;;;;;;2.70;2.50;;;;;;;23.10;62.27;96973.56;10488012;28;20163;-30
2023/08/22 12:52:15;;;;;;;2.80;2.60;;;;;;;23.10;62.06;96981.25;10487443;28;21404;-29
2023/08/22 12:57:15;;;;;;;2.43;2.23;;;;;;;23.10;62.12;96972.72;10421218;28;20506;-30
2023/08/22 13:02:15;;;;;;;2.87;2.67;;;;;;;23.10;62.40;96970.16;10427619;28;20060;-29
2023/08/22 13:07:16;;;;;;;2.58;2.38;;;;;;;23.10;62.27;96965.91;10443029;28;20499;-29
2023/08/22 13:12:16;;;;;;;3.10;2.90;;;;;;;23.11;62.57;96964.19;10431996;28;20506;-30
2023/08/22 13:17:17;;;;;;;3.10;2.73;;;;;;;23.10;62.02;96953.13;10443651;28;20290;-29
2023/08/22 13:22:18;;;;;;;2.88;2.67;;;;;;;23.10;62.49;96957.38;10417531;28;20292;-30
2023/08/22 13:27:18;;;;;;;2.38;2.17;;;;;;;23.10;62.46;96945.47;10437304;28;20119;-29
2023/08/22 13:32:19;;;;;;;3.40;3.10;;;;;;;23.10;62.45;96942.94;10423442;28;20068;-30
2023/08/22 13:37:19;;;;;;;2.50;2.30;;;;;;;23.10;62.50;96942.94;10436925;28;20040;-29
2023/08/22 13:42:19;;;;;;;2.92;2.60;;;;;;;23.11;62.51;96936.09;10423201;28;20053;-30
2023/08/22 13:47:22;;;;;;;3.20;2.90;;;;;;;23.12;62.53;96943.75;10428506;28;20056;-29
2023/08/22 13:52:22;;;;;;;2.42;2.22;;;;;;;23.11;62.64;96929.28;10427859;28;20025;-30
2023/08/22 13:57:23;;;;;;;2.88;2.35;;;;;;;23.13;62.90;96927.53;10432449;28;20033;-29
2023/08/22 14:02:23;;;;;;;2.73;2.53;;;;;;;23.12;62.62;96917.34;10438313;28;20034;-30
2023/08/22 14:07:24;;;;;;;2.40;2.20;;;;;;;23.12;62.49;96918.19;10416211;28;20287;-30
2023/08/22 14:12:24;;;;;;;2.43;2.23;;;;;;;23.13;62.52;96911.34;10432916;28;20087;-30
2023/08/22 14:17:25;;;;;;;2.60;2.40;;;;;;;23.11;62.19;96900.31;10436419;28;20037;-30
2023/08/22 14:22:26;;;;;;;2.47;2.28;;;;;;;23.12;62.38;96894.34;10449357;28;20029;-30
2023/08/22 14:27:26;;;;;;;2.37;2.17;;;;;;;23.12;62.39;96890.09;10408588;28;20068;-30
2023/08/22 14:32:26;;;;;;;2.27;2.13;;;;;;;23.08;62.56;96879.94;10441350;28;20025;-30
2023/08/22 14:37:27;;;;;;;2.50;2.30;;;;;;;23.13;62.97;96896.88;10437985;28;20083;-30
2023/08/22 14:42:27;;;;;;;2.70;2.50;;;;;;;23.14;62.80;96888.38;10433471;28;20859;-30
2023/08/22 14:47:27;;;;;;;2.63;2.43;;;;;;;23.14;62.62;96882.41;10427915;28;20052;-30
2023/08/22 14:52:28;;;;;;;2.70;2.50;;;;;;;23.15;62.65;96887.50;10437928;28;20030;-30
2023/08/22 14:57:28;;;;;;;3.03;2.83;;;;;;;23.15;63.09;96890.06;10432798;28;20020;-30
2023/08/22 15:02:28;;;;;;;2.67;2.47;;;;;;;23.15;62.58;96884.97;10428959;28;20294;-30
2023/08/22 15:07:29;;;;;;;2.70;2.50;;;;;;;23.15;62.95;96890.06;10441593;28;20665;-30
2023/08/22 15:12:29;;;;;;;2.30;2.10;;;;;;;23.15;62.83;96887.50;10429455;28;20483;-29
2023/08/22 15:17:30;;;;;;;2.20;2.00;;;;;;;23.15;62.70;96884.97;10453684;28;20822;-29
2023/08/22 15:22:31;;;;;;;2.33;2.13;;;;;;;23.15;62.78;96879.84;10452733;28;20036;-29
2023/08/22 15:27:32;;;;;;;2.63;2.42;;;;;;;23.14;62.93;96883.28;10415294;28;20287;-30
2023/08/22 15:32:32;;;;;;;2.45;2.25;;;;;;;23.15;62.90;96869.63;10455233;28;20029;-29
2023/08/22 15:37:33;;;;;;;2.57;2.37;;;;;;;23.15;62.88;96879.84;10420321;28;20044;-30
2023/08/22 15:42:34;;;;;;;2.60;2.40;;;;;;;23.16;62.86;96878.97;10446427;28;20060;-30
2023/08/22 15:47:34;;;;;;;2.40;2.20;;;;;;;23.16;62.62;96873.03;10421302;28;20809;-29
2023/08/22 15:52:36;;;;;;;2.50;2.30;;;;;;;23.15;62.80;96869.63;10427361;28;20033;-30
2023/08/22 15:57:37;;;;;;;2.40;2.20;;;;;;;23.16;62.87;96863.66;10446265;28;20080;-30
2023/08/22 16:02:37;;;;;;;2.80;2.60;;;;;;;23.14;62.62;96862.00;10415006;28;20033;-29
2023/08/22 16:07:37;;;;;;;2.07;1.97;;;;;;;23.16;62.73;96861.09;10445861;28;20135;-29
2023/08/22 16:12:38;;;;;;;2.10;1.90;;;;;;;23.16;62.52;96860.28;10429964;28;20033;-29
2023/08/22 16:17:38;;;;;;;2.30;2.20;;;;;;;23.15;62.81;96856.88;10437573;28;20037;-30
2023/08/22 16:22:39;;;;;;;2.30;1.90;;;;;;;23.16;62.53;96855.16;10429129;28;20029;-30
2023/08/22 16:27:39;;;;;;;2.30;2.10;;;;;;;23.17;62.85;96867.06;10412236;28;20323;-30
2023/08/22 16:32:39;;;;;;;2.30;2.17;;;;;;;23.17;62.76;96861.97;10440273;28;20630;-29
2023/08/22 16:37:40;;;;;;;2.10;2.00;;;;;;;23.16;62.67;96866.22;10431520;28;20108;-30
2023/08/22 16:42:41;;;;;;;2.10;1.90;;;;;;;23.17;62.69;96861.97;10452392;28;20051;-30
2023/08/22 16:47:41;;;;;;;2.07;1.90;;;;;;;23.14;62.68;96862.00;10442764;28;20029;-29
2023/08/22 16:52:41;;;;;;;1.87;1.77;;;;;;;23.17;62.44;96867.91;10427374;28;20072;-30
2023/08/22 16:57:42;;;;;;;2.67;2.47;;;;;;;23.17;62.48;96862.78;10421266;28;20295;-30
2023/08/22 17:02:43;;;;;;;2.27;2.10;;;;;;;23.16;62.47;96861.09;10434228;28;20040;-29
2023/08/22 17:07:44;;;;;;;1.65;1.55;;;;;;;23.18;62.42;96863.63;10447631;28;20117;-29
2023/08/22 17:12:45;;;;;;;1.92;1.83;;;;;;;23.16;62.36;96861.09;10431388;28;20083;-30
2023/08/22 17:17:45;;;;;;;1.90;1.80;;;;;;;23.17;62.55;96867.91;10430487;28;20044;-30
2023/08/22 17:22:45;;;;;;;1.90;1.80;;;;;;;23.17;62.38;96867.06;10434700;28;20082;-29
2023/08/22 17:27:46;;;;;;;2.03;1.93;;;;;;;23.17;62.55;96873.00;10437708;28;20099;-29
2023/08/22 17:32:46;;;;;;;2.43;2.23;;;;;;;23.16;62.47;96876.44;10438630;28;20373;-30
2023/08/22 17:37:46;;;;;;;2.20;2.10;;;;;;;23.16;62.27;96871.31;10424877;28;20291;-30
2023/08/22 17:42:47;;;;;;;1.93;1.83;;;;;;;23.17;62.33;96875.56;10442099;28;20033;-29
2023/08/22 17:47:47;;;;;;;2.03;1.90;;;;;;;23.17;62.42;96880.66;10425080;28;20045;-28
2023/08/22 17:52:48;;;;;;;2.40;2.20;;;;;;;23.16;62.35;96881.53;10421275;28;20033;-29
2023/08/22 17:57:48;;;;;;;1.80;1.70;;;;;;;23.13;62.25;96881.56;10450172;28;20037;-33
2023/08/22 18:02:49;;;;;;;2.08;1.88;;;;;;;23.12;62.23;96885.00;10433716;28;20033;-30
2023/08/22 18:07:52;;;;;;;1.80;1.70;;;;;;;23.17;62.26;96903.66;10426382;28;20053;-30
2023/08/22 18:12:52;;;;;;;1.83;1.73;;;;;;;23.17;62.03;96902.84;10429163;28;20465;-31
2023/08/22 18:17:52;;;;;;;2.23;2.03;;;;;;;23.15;62.00;96895.19;10437043;28;20033;-30
2023/08/22 18:22:53;;;;;;;2.43;2.23;;;;;;;23.15;61.87;96890.06;10428815;28;20029;-29
2023/08/22 18:27:53;;;;;;;2.10;2.00;;;;;;;23.14;61.76;96903.72;10422516;28;20032;-29
2023/08/22 18:32:54;;;;;;;1.67;1.58;;;;;;;23.14;61.88;96898.59;10428552;28;20090;-29
2023/08/22 18:37:54;;;;;;;1.60;1.50;;;;;;;23.14;61.89;96906.28;10425512;28;20036;-31
2023/08/22 18:42:55;;;;;;;2.00;1.90;;;;;;;23.14;61.89;96903.72;10448165;28;20113;-30
2023/08/22 18:47:55;;;;;;;1.40;1.30;;;;;;;23.15;61.91;96907.13;10433194;28;20290;-29
2023/08/22 18:52:56;;;;;;;1.50;1.40;;;;;;;23.14;61.69;96913.94;10433790;28;20296;-29
2023/08/22 18:57:56;;;;;;;1.65;1.55;;;;;;;23.10;61.82;96907.16;10444896;28;20024;-29
2023/08/22 19:02:57;;;;;;;1.40;1.30;;;;;;;23.14;61.74;96918.19;10419472;28;20037;-30
2023/08/22 19:07:57;;;;;;;1.77;1.67;;;;;;;23.14;62.01;96929.25;10452471;28;20387;-30
2023/08/22 19:12:57;;;;;;;1.63;1.53;;;;;;;23.15;61.81;96935.22;10441070;28;20033;-30
2023/08/22 19:17:58;;;;;;;1.67;1.57;;;;;;;23.14;61.80;96942.03;10432901;28;20052;-30
2023/08/22 19:22:58;;;;;;;1.40;1.30;;;;;;;23.13;61.86;96953.09;10444137;28;20051;-29
2023/08/22 19:27:58;;;;;;;1.50;1.40;;;;;;;23.14;61.79;96953.94;10427078;28;20435;-30
2023/08/22 19:33:01;;;;;;;1.33;1.23;;;;;;;23.13;61.75;96958.19;10435049;28;20450;-29
2023/08/22 19:38:02;;;;;;;1.60;1.50;;;;;;;23.14;61.83;96970.13;10426042;28;20116;-30
2023/08/22 19:43:03;;;;;;;1.27;1.17;;;;;;;23.15;61.79;96971.81;10446818;28;20032;-30
2023/08/22 19:48:04;;;;;;;1.67;1.58;;;;;;;23.15;61.76;96981.19;10423269;28;20033;-30
2023/08/22 19:53:05;;;;;;;1.58;1.48;;;;;;;23.16;61.88;96982.88;10424410;28;20029;-29
2023/08/22 19:58:05;;;;;;;1.25;1.17;;;;;;;23.15;61.77;96997.34;10452108;28;20037;-30
2023/08/22 20:03:06;;;;;;;1.48;1.38;;;;;;;23.15;61.62;97002.47;10417469;28;20550;-30
2023/08/22 20:08:06;;;;;;;1.90;1.33;;;;;;;23.15;61.63;97002.47;10450670;28;20052;-31
2023/08/22 20:13:07;;;;;;;1.63;1.53;;;;;;;23.14;61.72;97011.00;10434474;28;20045;-30
2023/08/22 20:18:07;;;;;;;1.50;1.40;;;;;;;23.14;61.86;97011.00;10424614;28;20083;-29
2023/08/22 20:23:07;;;;;;;1.50;1.40;;;;;;;23.13;61.72;97004.16;10428973;28;20061;-30
2023/08/22 20:28:08;;;;;;;1.50;1.40;;;;;;;23.13;61.70;97004.16;10426065;28;20403;-30
2023/08/22 20:33:08;;;;;;;1.50;1.40;;;;;;;23.13;61.63;97009.28;10444703;28;20283;-29
2023/08/22 20:38:09;;;;;;;1.40;1.30;;;;;;;23.14;61.71;97008.44;10427477;28;20459;-30
2023/08/22 20:43:10;;;;;;;1.88;1.30;;;;;;;23.13;61.82;96995.66;10441253;28;20098;-30
2023/08/22 20:48:10;;;;;;;1.40;1.30;;;;;;;23.15;61.71;96999.09;10432044;28;20383;-30
2023/08/22 20:53:10;;;;;;;1.37;1.27;;;;;;;23.14;61.81;96999.91;10452478;28;20366;-30
2023/08/22 20:58:11;;;;;;;1.57;1.47;;;;;;;23.09;61.66;96989.78;10423043;28;20097;-30
2023/08/22 21:03:11;;;;;;;1.37;1.27;;;;;;;23.15;61.98;97002.47;10430375;28;20439;-30
2023/08/22 21:08:11;;;;;;;1.23;1.13;;;;;;;23.15;61.70;96999.91;10435269;28;20033;-30
2023/08/22 21:13:12;;;;;;;1.40;1.30;;;;;;;23.15;61.76;96992.25;10414258;28;20291;-30
2023/08/22 21:18:12;;;;;;;1.63;1.53;;;;;;;23.16;61.83;96988.00;10439779;28;20042;-29
2023/08/22 21:23:13;;;;;;;1.20;1.20;;;;;;;23.16;61.90;96988.81;10414779;28;20039;-30
2023/08/22 21:28:13;;;;;;;1.60;1.50;;;;;;;23.16;61.83;96993.09;10422935;28;20091;-31
2023/08/22 21:33:13;;;;;;;1.17;1.08;;;;;;;23.14;61.65;96985.44;10439132;28;20029;-30
2023/08/22 21:38:14;;;;;;;1.27;1.10;;;;;;;23.15;61.71;96992.25;10420689;28;20407;-29
2023/08/22 21:43:14;;;;;;;1.40;1.30;;;;;;;23.16;61.71;96998.22;10433874;28;20040;-30
2023/08/22 21:48:15;;;;;;;1.30;1.20;;;;;;;23.15;61.70;96987.13;10422096;28;20057;-31
2023/08/22 21:53:15;;;;;;;0.90;0.90;;;;;;;23.15;61.69;96997.34;10433191;28;20052;-30
2023/08/22 21:58:15;;;;;;;1.53;1.43;;;;;;;23.13;61.74;96981.19;10422172;28;20052;-29
2023/08/22 22:03:16;;;;;;;1.17;1.07;;;;;;;23.15;61.54;96981.19;10429311;28;20087;-32
2023/08/22 22:08:16;;;;;;;1.20;1.10;;;;;;;23.14;61.59;96972.69;10413943;28;20120;-30
2023/08/22 22:13:18;;;;;;;1.20;1.10;;;;;;;23.15;61.67;96981.19;10430151;28;20400;-30
2023/08/22 22:18:19;;;;;;;1.40;1.30;;;;;;;23.14;61.58;96974.38;10428302;28;20075;-29
2023/08/22 22:23:20;;;;;;;1.38;1.27;;;;;;;23.14;61.65;96977.78;10448114;28;20041;-30
2023/08/22 22:28:20;;;;;;;1.30;1.20;;;;;;;23.15;61.56;96976.09;10450156;28;20033;-29
2023/08/22 22:33:22;;;;;;;1.40;1.30;;;;;;;23.15;61.63;96971.81;10436069;28;20062;-29
2023/08/22 22:38:22;;;;;;;1.10;1.00;;;;;;;23.14;61.65;96975.25;10449763;28;20279;-30
2023/08/22 22:43:22;;;;;;;1.30;1.20;;;;;;;23.14;61.49;96980.34;10440814;28;20037;-29
2023/08/22 22:48:23;;;;;;;1.27;1.17;;;;;;;23.15;61.59;96976.09;10449008;28;20033;-30
2023/08/22 22:53:23;;;;;;;1.40;1.30;;;;;;;23.15;61.51;96976.09;10427065;28;20079;-30
2023/08/22 22:58:24;;;;;;;1.30;1.20;;;;;;;23.15;61.50;96992.25;10448856;28;20257;-29
2023/08/22 23:03:24;;;;;;;1.00;1.00;;;;;;;23.15;61.71;96997.34;10427415;28;20037;-29
2023/08/22 23:08:25;;;;;;;1.30;1.20;;;;;;;23.15;61.54;96987.13;10451424;28;20024;-29
2023/08/22 23:13:25;;;;;;;1.17;1.10;;;;;;;23.12;61.52;96976.94;10425719;28;20112;-30
2023/08/22 23:18:26;;;;;;;1.40;1.30;;;;;;;23.15;61.64;96989.69;10428651;28;20335;-31